sensor_id;sensor_type;location;lat;lon;timestamp;P1;durP1;ratioP1;P2;durP2;ratioP2
73072;SDS011;61260;51.090;-1.786;2022-09-09T00:01:26;2.50;;;0.90;;
73072;SDS011;61260;51.090;-1.786;2022-09-09T00:04:05;4.80;;;1.00;;
73072;SDS011;61260;51.090;-1.786;2022-09-09T00:06:45;3.20;;;1.00;;
73072;SDS011;61260;51.090;-1.786;2022-09-09T00:09:22;2.10;;;0.80;;
73072;SDS011;61260;51.090;-1.786;2022-09-09T00:11:56;3.30;;;0.90;;
73072;SDS011;61260;51.090;-1.786;2022-09-09T00:14:33;2.50;;;1.00;;
73072;SDS011;61260;51.090;-1.786;2022-09-09T00:17:09;2.50;;;0.80;;
73072;SDS011;61260;51.090;-1.786;2022-09-09T00:19:41;5.00;;;0.90;;
73072;SDS011;61260;51.090;-1.786;2022-09-09T00:22:19;5.20;;;1.50;;
73072;SDS011;61260;51.090;-1.786;2022-09-09T00:24:53;2.40;;;0.90;;
73072;SDS011;61260;51.090;-1.786;2022-09-09T00:27:25;2.40;;;1.10;;
73072;SDS011;61260;51.090;-1.786;2022-09-09T00:30:00;3.80;;;1.20;;
73072;SDS011;61260;51.090;-1.786;2022-09-09T00:32:41;2.80;;;1.30;;
73072;SDS011;61260;51.090;-1.786;2022-09-09T00:35:14;3.50;;;1.00;;
73072;SDS011;61260;51.090;-1.786;2022-09-09T00:37:50;2.20;;;1.10;;
73072;SDS011;61260;51.090;-1.786;2022-09-09T00:40:27;3.80;;;0.90;;
73072;SDS011;61260;51.090;-1.786;2022-09-09T00:43:03;2.60;;;1.00;;
73072;SDS011;61260;51.090;-1.786;2022-09-09T00:48:57;2.00;;;1.00;;
73072;SDS011;61260;51.090;-1.786;2022-09-09T00:51:36;3.30;;;1.00;;
73072;SDS011;61260;51.090;-1.786;2022-09-09T00:54:18;4.70;;;1.20;;
73072;SDS011;61260;51.090;-1.786;2022-09-09T00:57:18;2.40;;;1.00;;
73072;SDS011;61260;51.090;-1.786;2022-09-09T00:59:57;2.70;;;1.10;;
73072;SDS011;61260;51.090;-1.786;2022-09-09T01:02:45;3.90;;;1.00;;
73072;SDS011;61260;51.090;-1.786;2022-09-09T01:05:22;2.30;;;1.00;;
73072;SDS011;61260;51.090;-1.786;2022-09-09T01:08:03;3.00;;;1.10;;
73072;SDS011;61260;51.090;-1.786;2022-09-09T01:10:39;2.30;;;1.00;;
73072;SDS011;61260;51.090;-1.786;2022-09-09T01:13:13;3.30;;;1.10;;
73072;SDS011;61260;51.090;-1.786;2022-09-09T01:15:46;6.20;;;1.60;;
73072;SDS011;61260;51.090;-1.786;2022-09-09T01:18:20;3.70;;;1.00;;
73072;SDS011;61260;51.090;-1.786;2022-09-09T01:20:56;2.50;;;1.10;;
73072;SDS011;61260;51.090;-1.786;2022-09-09T01:23:36;3.40;;;1.20;;
73072;SDS011;61260;51.090;-1.786;2022-09-09T01:26:23;3.00;;;1.00;;
73072;SDS011;61260;51.090;-1.786;2022-09-09T01:28:56;4.70;;;1.20;;
73072;SDS011;61260;51.090;-1.786;2022-09-09T01:31:28;3.10;;;1.40;;
73072;SDS011;61260;51.090;-1.786;2022-09-09T01:34:00;2.30;;;1.40;;
73072;SDS011;61260;51.090;-1.786;2022-09-09T01:36:32;6.30;;;1.80;;
73072;SDS011;61260;51.090;-1.786;2022-09-09T01:39:07;5.60;;;1.40;;
73072;SDS011;61260;51.090;-1.786;2022-09-09T01:41:37;3.20;;;1.50;;
73072;SDS011;61260;51.090;-1.786;2022-09-09T01:44:07;4.50;;;1.70;;
73072;SDS011;61260;51.090;-1.786;2022-09-09T01:46:37;4.70;;;1.80;;
73072;SDS011;61260;51.090;-1.786;2022-09-09T01:49:07;4.30;;;1.70;;
73072;SDS011;61260;51.090;-1.786;2022-09-09T01:51:39;4.00;;;1.70;;
73072;SDS011;61260;51.090;-1.786;2022-09-09T01:54:10;3.70;;;2.10;;
73072;SDS011;61260;51.090;-1.786;2022-09-09T01:56:43;2.20;;;1.60;;
73072;SDS011;61260;51.090;-1.786;2022-09-09T01:59:33;2.40;;;1.70;;
73072;SDS011;61260;51.090;-1.786;2022-09-09T02:02:13;3.10;;;1.90;;
73072;SDS011;61260;51.090;-1.786;2022-09-09T02:04:47;3.00;;;2.20;;
73072;SDS011;61260;51.090;-1.786;2022-09-09T02:07:24;6.00;;;2.70;;
73072;SDS011;61260;51.090;-1.786;2022-09-09T02:10:09;4.70;;;1.90;;
73072;SDS011;61260;51.090;-1.786;2022-09-09T02:12:43;6.20;;;1.80;;
73072;SDS011;61260;51.090;-1.786;2022-09-09T02:15:20;2.60;;;1.90;;
73072;SDS011;61260;51.090;-1.786;2022-09-09T02:17:55;3.10;;;1.90;;
73072;SDS011;61260;51.090;-1.786;2022-09-09T02:20:29;3.00;;;1.60;;
73072;SDS011;61260;51.090;-1.786;2022-09-09T02:23:01;5.10;;;2.40;;
73072;SDS011;61260;51.090;-1.786;2022-09-09T02:25:32;4.40;;;1.70;;
73072;SDS011;61260;51.090;-1.786;2022-09-09T02:28:05;5.20;;;1.80;;
73072;SDS011;61260;51.090;-1.786;2022-09-09T02:30:37;3.90;;;1.60;;
73072;SDS011;61260;51.090;-1.786;2022-09-09T02:33:10;4.00;;;1.90;;
73072;SDS011;61260;51.090;-1.786;2022-09-09T02:35:41;3.80;;;2.20;;
73072;SDS011;61260;51.090;-1.786;2022-09-09T02:38:13;2.50;;;1.50;;
73072;SDS011;61260;51.090;-1.786;2022-09-09T02:43:15;5.50;;;2.20;;
73072;SDS011;61260;51.090;-1.786;2022-09-09T02:45:50;4.40;;;1.90;;
73072;SDS011;61260;51.090;-1.786;2022-09-09T02:48:26;5.10;;;2.20;;
73072;SDS011;61260;51.090;-1.786;2022-09-09T02:51:06;3.30;;;2.10;;
73072;SDS011;61260;51.090;-1.786;2022-09-09T02:53:43;3.40;;;2.00;;
73072;SDS011;61260;51.090;-1.786;2022-09-09T02:56:21;2.30;;;1.40;;
73072;SDS011;61260;51.090;-1.786;2022-09-09T02:58:59;2.70;;;1.30;;
73072;SDS011;61260;51.090;-1.786;2022-09-09T03:01:30;5.00;;;1.60;;
73072;SDS011;61260;51.090;-1.786;2022-09-09T03:04:02;2.90;;;1.60;;
73072;SDS011;61260;51.090;-1.786;2022-09-09T03:06:32;3.80;;;1.80;;
73072;SDS011;61260;51.090;-1.786;2022-09-09T03:09:02;3.00;;;1.60;;
73072;SDS011;61260;51.090;-1.786;2022-09-09T03:11:32;5.00;;;1.60;;
73072;SDS011;61260;51.090;-1.786;2022-09-09T03:14:02;4.30;;;1.90;;
73072;SDS011;61260;51.090;-1.786;2022-09-09T03:16:32;1.80;;;1.50;;
73072;SDS011;61260;51.090;-1.786;2022-09-09T03:19:02;3.80;;;1.50;;
73072;SDS011;61260;51.090;-1.786;2022-09-09T03:21:32;3.20;;;1.60;;
73072;SDS011;61260;51.090;-1.786;2022-09-09T03:24:02;3.30;;;1.70;;
73072;SDS011;61260;51.090;-1.786;2022-09-09T03:26:33;3.20;;;1.80;;
73072;SDS011;61260;51.090;-1.786;2022-09-09T03:29:04;2.00;;;1.30;;
73072;SDS011;61260;51.090;-1.786;2022-09-09T03:31:34;4.30;;;1.60;;
73072;SDS011;61260;51.090;-1.786;2022-09-09T03:34:04;4.40;;;1.70;;
73072;SDS011;61260;51.090;-1.786;2022-09-09T03:36:34;2.70;;;1.50;;
73072;SDS011;61260;51.090;-1.786;2022-09-09T03:39:04;3.60;;;1.80;;
73072;SDS011;61260;51.090;-1.786;2022-09-09T03:41:33;5.20;;;1.80;;
73072;SDS011;61260;51.090;-1.786;2022-09-09T03:44:03;3.10;;;1.70;;
73072;SDS011;61260;51.090;-1.786;2022-09-09T03:46:33;2.40;;;1.40;;
73072;SDS011;61260;51.090;-1.786;2022-09-09T03:49:03;3.70;;;1.70;;
73072;SDS011;61260;51.090;-1.786;2022-09-09T03:51:32;2.20;;;1.40;;
73072;SDS011;61260;51.090;-1.786;2022-09-09T03:54:03;3.10;;;1.80;;
73072;SDS011;61260;51.090;-1.786;2022-09-09T03:56:35;2.70;;;1.20;;
73072;SDS011;61260;51.090;-1.786;2022-09-09T03:59:05;1.50;;;1.10;;
73072;SDS011;61260;51.090;-1.786;2022-09-09T04:01:35;2.10;;;1.20;;
73072;SDS011;61260;51.090;-1.786;2022-09-09T04:04:05;3.50;;;1.60;;
73072;SDS011;61260;51.090;-1.786;2022-09-09T04:06:35;3.00;;;1.30;;
73072;SDS011;61260;51.090;-1.786;2022-09-09T04:09:05;3.10;;;1.20;;
73072;SDS011;61260;51.090;-1.786;2022-09-09T04:11:34;2.90;;;1.00;;
73072;SDS011;61260;51.090;-1.786;2022-09-09T04:14:04;3.10;;;1.30;;
73072;SDS011;61260;51.090;-1.786;2022-09-09T04:16:35;1.50;;;1.00;;
73072;SDS011;61260;51.090;-1.786;2022-09-09T04:19:05;2.80;;;1.00;;
73072;SDS011;61260;51.090;-1.786;2022-09-09T04:21:34;3.90;;;1.40;;
73072;SDS011;61260;51.090;-1.786;2022-09-09T04:24:06;3.50;;;1.30;;
73072;SDS011;61260;51.090;-1.786;2022-09-09T04:26:36;2.70;;;1.20;;
73072;SDS011;61260;51.090;-1.786;2022-09-09T04:29:06;3.70;;;1.30;;
73072;SDS011;61260;51.090;-1.786;2022-09-09T04:31:35;3.20;;;1.70;;
73072;SDS011;61260;51.090;-1.786;2022-09-09T04:34:08;2.30;;;1.30;;
73072;SDS011;61260;51.090;-1.786;2022-09-09T04:36:38;2.90;;;1.20;;
73072;SDS011;61260;51.090;-1.786;2022-09-09T04:39:07;3.00;;;1.50;;
73072;SDS011;61260;51.090;-1.786;2022-09-09T04:41:37;2.90;;;1.20;;
73072;SDS011;61260;51.090;-1.786;2022-09-09T04:44:07;4.10;;;1.80;;
73072;SDS011;61260;51.090;-1.786;2022-09-09T04:46:36;2.30;;;1.30;;
73072;SDS011;61260;51.090;-1.786;2022-09-09T04:49:07;3.60;;;1.50;;
73072;SDS011;61260;51.090;-1.786;2022-09-09T04:51:37;2.50;;;1.60;;
73072;SDS011;61260;51.090;-1.786;2022-09-09T04:54:07;3.10;;;1.60;;
73072;SDS011;61260;51.090;-1.786;2022-09-09T04:56:37;3.60;;;1.80;;
73072;SDS011;61260;51.090;-1.786;2022-09-09T04:59:08;2.90;;;1.50;;
73072;SDS011;61260;51.090;-1.786;2022-09-09T05:01:37;2.50;;;1.60;;
73072;SDS011;61260;51.090;-1.786;2022-09-09T05:04:07;3.10;;;1.60;;
73072;SDS011;61260;51.090;-1.786;2022-09-09T05:06:37;4.10;;;1.70;;
73072;SDS011;61260;51.090;-1.786;2022-09-09T05:09:06;2.40;;;1.40;;
73072;SDS011;61260;51.090;-1.786;2022-09-09T05:11:36;3.70;;;1.80;;
73072;SDS011;61260;51.090;-1.786;2022-09-09T05:14:06;3.60;;;1.50;;
73072;SDS011;61260;51.090;-1.786;2022-09-09T05:16:37;2.60;;;1.50;;
73072;SDS011;61260;51.090;-1.786;2022-09-09T05:19:07;3.10;;;1.60;;
73072;SDS011;61260;51.090;-1.786;2022-09-09T05:21:37;3.20;;;1.90;;
73072;SDS011;61260;51.090;-1.786;2022-09-09T05:24:08;3.50;;;1.80;;
73072;SDS011;61260;51.090;-1.786;2022-09-09T05:26:37;3.00;;;1.80;;
73072;SDS011;61260;51.090;-1.786;2022-09-09T05:29:07;3.50;;;1.30;;
73072;SDS011;61260;51.090;-1.786;2022-09-09T05:31:37;3.20;;;1.50;;
73072;SDS011;61260;51.090;-1.786;2022-09-09T05:34:07;3.20;;;1.70;;
73072;SDS011;61260;51.090;-1.786;2022-09-09T05:36:37;2.90;;;1.40;;
73072;SDS011;61260;51.090;-1.786;2022-09-09T05:39:07;2.10;;;1.20;;
73072;SDS011;61260;51.090;-1.786;2022-09-09T05:41:38;2.40;;;1.40;;
73072;SDS011;61260;51.090;-1.786;2022-09-09T05:44:08;3.70;;;1.60;;
73072;SDS011;61260;51.090;-1.786;2022-09-09T05:46:37;4.00;;;1.70;;
73072;SDS011;61260;51.090;-1.786;2022-09-09T05:49:07;2.40;;;1.20;;
73072;SDS011;61260;51.090;-1.786;2022-09-09T05:51:37;3.60;;;1.90;;
73072;SDS011;61260;51.090;-1.786;2022-09-09T05:54:07;9.20;;;1.70;;
73072;SDS011;61260;51.090;-1.786;2022-09-09T05:56:36;2.70;;;1.40;;
73072;SDS011;61260;51.090;-1.786;2022-09-09T05:59:06;2.30;;;1.30;;
73072;SDS011;61260;51.090;-1.786;2022-09-09T06:01:36;5.10;;;1.50;;
73072;SDS011;61260;51.090;-1.786;2022-09-09T06:04:07;2.10;;;1.20;;
73072;SDS011;61260;51.090;-1.786;2022-09-09T06:06:37;2.00;;;1.30;;
73072;SDS011;61260;51.090;-1.786;2022-09-09T06:09:09;4.30;;;1.10;;
73072;SDS011;61260;51.090;-1.786;2022-09-09T06:11:40;2.00;;;1.00;;
73072;SDS011;61260;51.090;-1.786;2022-09-09T06:14:10;2.40;;;0.70;;
73072;SDS011;61260;51.090;-1.786;2022-09-09T06:16:39;4.60;;;1.30;;
73072;SDS011;61260;51.090;-1.786;2022-09-09T06:19:10;4.20;;;0.90;;
73072;SDS011;61260;51.090;-1.786;2022-09-09T06:21:40;1.50;;;0.80;;
73072;SDS011;61260;51.090;-1.786;2022-09-09T06:24:10;2.60;;;0.90;;
73072;SDS011;61260;51.090;-1.786;2022-09-09T06:26:43;2.30;;;0.90;;
73072;SDS011;61260;51.090;-1.786;2022-09-09T06:29:13;2.70;;;0.90;;
73072;SDS011;61260;51.090;-1.786;2022-09-09T06:31:44;5.10;;;0.90;;
73072;SDS011;61260;51.090;-1.786;2022-09-09T06:34:15;3.60;;;0.80;;
73072;SDS011;61260;51.090;-1.786;2022-09-09T06:36:44;0.80;;;0.40;;
73072;SDS011;61260;51.090;-1.786;2022-09-09T06:39:14;2.20;;;0.50;;
73072;SDS011;61260;51.090;-1.786;2022-09-09T06:41:44;1.80;;;0.70;;
73072;SDS011;61260;51.090;-1.786;2022-09-09T06:44:15;1.20;;;0.50;;
73072;SDS011;61260;51.090;-1.786;2022-09-09T06:46:44;3.50;;;0.60;;
73072;SDS011;61260;51.090;-1.786;2022-09-09T06:49:14;2.20;;;0.60;;
73072;SDS011;61260;51.090;-1.786;2022-09-09T06:51:44;1.10;;;0.50;;
73072;SDS011;61260;51.090;-1.786;2022-09-09T06:54:14;2.20;;;0.50;;
73072;SDS011;61260;51.090;-1.786;2022-09-09T06:57:38;2.30;;;0.60;;
73072;SDS011;61260;51.090;-1.786;2022-09-09T07:00:09;1.00;;;0.40;;
73072;SDS011;61260;51.090;-1.786;2022-09-09T07:02:41;1.50;;;0.50;;
73072;SDS011;61260;51.090;-1.786;2022-09-09T07:05:11;2.30;;;0.60;;
73072;SDS011;61260;51.090;-1.786;2022-09-09T07:07:42;1.80;;;0.50;;
73072;SDS011;61260;51.090;-1.786;2022-09-09T07:10:13;1.60;;;0.40;;
73072;SDS011;61260;51.090;-1.786;2022-09-09T07:12:43;1.50;;;0.50;;
73072;SDS011;61260;51.090;-1.786;2022-09-09T07:15:18;1.70;;;0.60;;
73072;SDS011;61260;51.090;-1.786;2022-09-09T07:17:50;4.00;;;0.70;;
73072;SDS011;61260;51.090;-1.786;2022-09-09T07:20:20;2.40;;;0.40;;
73072;SDS011;61260;51.090;-1.786;2022-09-09T07:22:51;2.80;;;0.50;;
73072;SDS011;61260;51.090;-1.786;2022-09-09T07:25:25;1.30;;;0.50;;
73072;SDS011;61260;51.090;-1.786;2022-09-09T07:27:57;4.50;;;0.70;;
73072;SDS011;61260;51.090;-1.786;2022-09-09T07:30:27;1.70;;;0.60;;
73072;SDS011;61260;51.090;-1.786;2022-09-09T07:32:58;1.90;;;0.70;;
73072;SDS011;61260;51.090;-1.786;2022-09-09T07:35:29;1.60;;;0.70;;
73072;SDS011;61260;51.090;-1.786;2022-09-09T07:38:02;1.70;;;0.60;;
73072;SDS011;61260;51.090;-1.786;2022-09-09T07:40:33;2.50;;;0.60;;
73072;SDS011;61260;51.090;-1.786;2022-09-09T07:43:03;2.70;;;0.50;;
73072;SDS011;61260;51.090;-1.786;2022-09-09T07:45:34;2.20;;;0.70;;
73072;SDS011;61260;51.090;-1.786;2022-09-09T07:48:04;3.60;;;0.80;;
73072;SDS011;61260;51.090;-1.786;2022-09-09T07:50:35;3.60;;;0.60;;
73072;SDS011;61260;51.090;-1.786;2022-09-09T07:53:05;3.50;;;0.60;;
73072;SDS011;61260;51.090;-1.786;2022-09-09T07:55:36;1.90;;;0.70;;
73072;SDS011;61260;51.090;-1.786;2022-09-09T07:58:07;1.00;;;0.50;;
73072;SDS011;61260;51.090;-1.786;2022-09-09T08:00:37;2.10;;;0.90;;
73072;SDS011;61260;51.090;-1.786;2022-09-09T08:03:10;1.50;;;0.50;;
73072;SDS011;61260;51.090;-1.786;2022-09-09T08:05:41;2.40;;;0.60;;
73072;SDS011;61260;51.090;-1.786;2022-09-09T08:08:11;1.90;;;0.50;;
73072;SDS011;61260;51.090;-1.786;2022-09-09T08:10:42;2.20;;;0.70;;
73072;SDS011;61260;51.090;-1.786;2022-09-09T08:13:14;1.10;;;0.70;;
73072;SDS011;61260;51.090;-1.786;2022-09-09T08:15:45;1.50;;;0.50;;
73072;SDS011;61260;51.090;-1.786;2022-09-09T08:18:16;1.80;;;0.60;;
73072;SDS011;61260;51.090;-1.786;2022-09-09T08:20:46;3.80;;;0.70;;
73072;SDS011;61260;51.090;-1.786;2022-09-09T08:23:17;2.10;;;0.70;;
73072;SDS011;61260;51.090;-1.786;2022-09-09T08:25:46;2.20;;;0.60;;
73072;SDS011;61260;51.090;-1.786;2022-09-09T08:28:16;2.70;;;0.70;;
73072;SDS011;61260;51.090;-1.786;2022-09-09T08:30:47;1.40;;;0.70;;
73072;SDS011;61260;51.090;-1.786;2022-09-09T08:33:18;1.80;;;0.50;;
73072;SDS011;61260;51.090;-1.786;2022-09-09T08:35:51;1.60;;;0.50;;
73072;SDS011;61260;51.090;-1.786;2022-09-09T08:38:21;2.30;;;0.60;;
73072;SDS011;61260;51.090;-1.786;2022-09-09T08:40:52;5.20;;;0.80;;
73072;SDS011;61260;51.090;-1.786;2022-09-09T08:43:27;1.30;;;0.60;;
73072;SDS011;61260;51.090;-1.786;2022-09-09T08:46:00;1.20;;;0.50;;
73072;SDS011;61260;51.090;-1.786;2022-09-09T08:48:46;1.30;;;0.50;;
73072;SDS011;61260;51.090;-1.786;2022-09-09T08:51:44;1.30;;;0.40;;
73072;SDS011;61260;51.090;-1.786;2022-09-09T08:56:45;1.20;;;0.50;;
73072;SDS011;61260;51.090;-1.786;2022-09-09T08:59:17;0.80;;;0.40;;
73072;SDS011;61260;51.090;-1.786;2022-09-09T09:01:57;1.40;;;0.40;;
73072;SDS011;61260;51.090;-1.786;2022-09-09T09:04:44;1.20;;;0.50;;
73072;SDS011;61260;51.090;-1.786;2022-09-09T09:07:28;1.20;;;0.40;;
73072;SDS011;61260;51.090;-1.786;2022-09-09T09:10:15;1.70;;;0.40;;
73072;SDS011;61260;51.090;-1.786;2022-09-09T09:12:59;1.90;;;0.60;;
73072;SDS011;61260;51.090;-1.786;2022-09-09T09:15:31;0.40;;;0.30;;
73072;SDS011;61260;51.090;-1.786;2022-09-09T09:18:04;1.70;;;0.40;;
73072;SDS011;61260;51.090;-1.786;2022-09-09T09:20:41;2.70;;;0.50;;
73072;SDS011;61260;51.090;-1.786;2022-09-09T09:23:21;0.50;;;0.40;;
73072;SDS011;61260;51.090;-1.786;2022-09-09T09:25:55;1.00;;;0.30;;
73072;SDS011;61260;51.090;-1.786;2022-09-09T09:28:29;1.40;;;0.30;;
73072;SDS011;61260;51.090;-1.786;2022-09-09T09:31:01;1.40;;;0.70;;
73072;SDS011;61260;51.090;-1.786;2022-09-09T09:33:36;0.90;;;0.40;;
73072;SDS011;61260;51.090;-1.786;2022-09-09T09:36:12;0.80;;;0.30;;
73072;SDS011;61260;51.090;-1.786;2022-09-09T09:38:53;2.20;;;0.50;;
73072;SDS011;61260;51.090;-1.786;2022-09-09T09:41:34;1.70;;;0.40;;
73072;SDS011;61260;51.090;-1.786;2022-09-09T09:44:19;2.50;;;0.50;;
73072;SDS011;61260;51.090;-1.786;2022-09-09T09:46:52;2.50;;;0.60;;
73072;SDS011;61260;51.090;-1.786;2022-09-09T09:49:33;3.80;;;1.10;;
73072;SDS011;61260;51.090;-1.786;2022-09-09T09:52:04;1.20;;;0.50;;
73072;SDS011;61260;51.090;-1.786;2022-09-09T09:54:50;2.10;;;0.60;;
73072;SDS011;61260;51.090;-1.786;2022-09-09T09:57:24;1.60;;;0.50;;
73072;SDS011;61260;51.090;-1.786;2022-09-09T10:00:12;1.40;;;0.50;;
73072;SDS011;61260;51.090;-1.786;2022-09-09T10:02:45;3.10;;;0.60;;
73072;SDS011;61260;51.090;-1.786;2022-09-09T10:05:19;2.20;;;0.50;;
73072;SDS011;61260;51.090;-1.786;2022-09-09T10:08:01;1.10;;;0.40;;
73072;SDS011;61260;51.090;-1.786;2022-09-09T10:10:36;2.90;;;0.40;;
73072;SDS011;61260;51.090;-1.786;2022-09-09T10:13:14;2.30;;;0.60;;
73072;SDS011;61260;51.090;-1.786;2022-09-09T10:15:50;1.20;;;0.40;;
73072;SDS011;61260;51.090;-1.786;2022-09-09T10:18:42;1.20;;;0.50;;
73072;SDS011;61260;51.090;-1.786;2022-09-09T10:21:27;0.80;;;0.40;;
73072;SDS011;61260;51.090;-1.786;2022-09-09T10:24:16;1.70;;;0.50;;
73072;SDS011;61260;51.090;-1.786;2022-09-09T10:27:03;0.80;;;0.30;;
73072;SDS011;61260;51.090;-1.786;2022-09-09T10:29:47;3.20;;;0.40;;
73072;SDS011;61260;51.090;-1.786;2022-09-09T10:32:33;1.60;;;0.50;;
73072;SDS011;61260;51.090;-1.786;2022-09-09T10:35:12;1.20;;;0.50;;
73072;SDS011;61260;51.090;-1.786;2022-09-09T10:37:58;1.40;;;0.50;;
73072;SDS011;61260;51.090;-1.786;2022-09-09T10:43:53;1.20;;;0.50;;
73072;SDS011;61260;51.090;-1.786;2022-09-09T10:46:41;1.60;;;0.50;;
73072;SDS011;61260;51.090;-1.786;2022-09-09T10:49:27;0.90;;;0.60;;
73072;SDS011;61260;51.090;-1.786;2022-09-09T10:52:21;2.30;;;0.50;;
73072;SDS011;61260;51.090;-1.786;2022-09-09T10:55:00;1.20;;;0.60;;
73072;SDS011;61260;51.090;-1.786;2022-09-09T10:57:39;1.30;;;0.40;;
73072;SDS011;61260;51.090;-1.786;2022-09-09T11:00:15;0.50;;;0.20;;
73072;SDS011;61260;51.090;-1.786;2022-09-09T11:02:50;0.70;;;0.30;;
73072;SDS011;61260;51.090;-1.786;2022-09-09T11:05:24;2.80;;;0.30;;
73072;SDS011;61260;51.090;-1.786;2022-09-09T11:08:01;1.00;;;0.20;;
73072;SDS011;61260;51.090;-1.786;2022-09-09T11:10:36;0.50;;;0.10;;
73072;SDS011;61260;51.090;-1.786;2022-09-09T11:13:13;0.60;;;0.10;;
73072;SDS011;61260;51.090;-1.786;2022-09-09T11:15:49;1.10;;;0.20;;
73072;SDS011;61260;51.090;-1.786;2022-09-09T11:18:22;0.50;;;0.20;;
73072;SDS011;61260;51.090;-1.786;2022-09-09T11:20:54;1.00;;;0.30;;
73072;SDS011;61260;51.090;-1.786;2022-09-09T11:23:29;1.90;;;0.20;;
73072;SDS011;61260;51.090;-1.786;2022-09-09T11:26:07;0.90;;;0.20;;
73072;SDS011;61260;51.090;-1.786;2022-09-09T11:28:48;1.40;;;0.30;;
73072;SDS011;61260;51.090;-1.786;2022-09-09T11:31:32;1.00;;;0.30;;
73072;SDS011;61260;51.090;-1.786;2022-09-09T11:34:15;0.70;;;0.30;;
73072;SDS011;61260;51.090;-1.786;2022-09-09T11:37:03;0.60;;;0.20;;
73072;SDS011;61260;51.090;-1.786;2022-09-09T11:39:48;0.20;;;0.10;;
73072;SDS011;61260;51.090;-1.786;2022-09-09T11:42:28;1.10;;;0.20;;
73072;SDS011;61260;51.090;-1.786;2022-09-09T11:44:59;1.50;;;0.30;;
73072;SDS011;61260;51.090;-1.786;2022-09-09T11:47:39;0.80;;;0.30;;
73072;SDS011;61260;51.090;-1.786;2022-09-09T11:50:28;1.10;;;0.10;;
73072;SDS011;61260;51.090;-1.786;2022-09-09T11:53:16;0.90;;;0.30;;
73072;SDS011;61260;51.090;-1.786;2022-09-09T11:56:08;2.40;;;0.60;;
73072;SDS011;61260;51.090;-1.786;2022-09-09T11:58:44;0.80;;;0.10;;
73072;SDS011;61260;51.090;-1.786;2022-09-09T12:01:33;0.60;;;0.20;;
73072;SDS011;61260;51.090;-1.786;2022-09-09T12:04:12;0.30;;;0.20;;
73072;SDS011;61260;51.090;-1.786;2022-09-09T12:06:56;0.20;;;0.20;;
73072;SDS011;61260;51.090;-1.786;2022-09-09T12:09:41;1.90;;;0.30;;
73072;SDS011;61260;51.090;-1.786;2022-09-09T12:12:28;1.80;;;0.40;;
73072;SDS011;61260;51.090;-1.786;2022-09-09T12:15:01;0.70;;;0.20;;
73072;SDS011;61260;51.090;-1.786;2022-09-09T12:17:49;1.40;;;0.40;;
73072;SDS011;61260;51.090;-1.786;2022-09-09T12:20:21;0.30;;;0.20;;
73072;SDS011;61260;51.090;-1.786;2022-09-09T12:23:06;0.40;;;0.20;;
73072;SDS011;61260;51.090;-1.786;2022-09-09T12:26:00;1.20;;;0.40;;
73072;SDS011;61260;51.090;-1.786;2022-09-09T12:28:42;1.20;;;0.30;;
73072;SDS011;61260;51.090;-1.786;2022-09-09T12:31:22;0.60;;;0.40;;
73072;SDS011;61260;51.090;-1.786;2022-09-09T12:34:04;1.30;;;0.30;;
73072;SDS011;61260;51.090;-1.786;2022-09-09T12:36:41;0.40;;;0.30;;
73072;SDS011;61260;51.090;-1.786;2022-09-09T12:39:17;0.40;;;0.20;;
73072;SDS011;61260;51.090;-1.786;2022-09-09T12:41:55;0.50;;;0.30;;
73072;SDS011;61260;51.090;-1.786;2022-09-09T12:44:25;0.40;;;0.20;;
73072;SDS011;61260;51.090;-1.786;2022-09-09T12:46:56;1.10;;;0.30;;
73072;SDS011;61260;51.090;-1.786;2022-09-09T12:49:30;0.80;;;0.30;;
73072;SDS011;61260;51.090;-1.786;2022-09-09T12:52:04;0.20;;;0.20;;
73072;SDS011;61260;51.090;-1.786;2022-09-09T12:54:43;0.80;;;0.20;;
73072;SDS011;61260;51.090;-1.786;2022-09-09T12:57:14;1.40;;;0.50;;
73072;SDS011;61260;51.090;-1.786;2022-09-09T12:59:45;0.40;;;0.40;;
73072;SDS011;61260;51.090;-1.786;2022-09-09T13:02:24;0.50;;;0.40;;
73072;SDS011;61260;51.090;-1.786;2022-09-09T13:05:05;0.80;;;0.50;;
73072;SDS011;61260;51.090;-1.786;2022-09-09T13:07:41;1.10;;;0.70;;
73072;SDS011;61260;51.090;-1.786;2022-09-09T13:10:12;0.60;;;0.60;;
73072;SDS011;61260;51.090;-1.786;2022-09-09T13:12:48;1.50;;;0.80;;
73072;SDS011;61260;51.090;-1.786;2022-09-09T13:15:22;1.10;;;0.70;;
73072;SDS011;61260;51.090;-1.786;2022-09-09T13:17:57;1.50;;;0.70;;
73072;SDS011;61260;51.090;-1.786;2022-09-09T13:20:29;1.20;;;0.60;;
73072;SDS011;61260;51.090;-1.786;2022-09-09T13:23:00;1.10;;;0.60;;
73072;SDS011;61260;51.090;-1.786;2022-09-09T13:25:30;1.70;;;0.80;;
73072;SDS011;61260;51.090;-1.786;2022-09-09T13:28:02;1.90;;;0.60;;
73072;SDS011;61260;51.090;-1.786;2022-09-09T13:30:33;0.90;;;0.70;;
73072;SDS011;61260;51.090;-1.786;2022-09-09T13:33:18;1.40;;;0.60;;
73072;SDS011;61260;51.090;-1.786;2022-09-09T13:35:51;2.20;;;0.80;;
73072;SDS011;61260;51.090;-1.786;2022-09-09T13:38:23;2.40;;;0.80;;
73072;SDS011;61260;51.090;-1.786;2022-09-09T13:40:56;1.50;;;0.70;;
73072;SDS011;61260;51.090;-1.786;2022-09-09T13:43:31;2.00;;;0.60;;
73072;SDS011;61260;51.090;-1.786;2022-09-09T13:46:03;1.70;;;0.40;;
73072;SDS011;61260;51.090;-1.786;2022-09-09T13:48:55;1.40;;;0.60;;
73072;SDS011;61260;51.090;-1.786;2022-09-09T13:51:35;1.20;;;0.50;;
73072;SDS011;61260;51.090;-1.786;2022-09-09T13:54:06;1.80;;;0.60;;
73072;SDS011;61260;51.090;-1.786;2022-09-09T13:56:40;1.40;;;0.60;;
73072;SDS011;61260;51.090;-1.786;2022-09-09T13:59:12;2.00;;;0.80;;
73072;SDS011;61260;51.090;-1.786;2022-09-09T14:01:45;1.80;;;0.50;;
73072;SDS011;61260;51.090;-1.786;2022-09-09T14:04:15;3.20;;;0.60;;
73072;SDS011;61260;51.090;-1.786;2022-09-09T14:06:47;0.70;;;0.40;;
73072;SDS011;61260;51.090;-1.786;2022-09-09T14:09:18;1.50;;;0.60;;
73072;SDS011;61260;51.090;-1.786;2022-09-09T14:11:48;2.40;;;0.70;;
73072;SDS011;61260;51.090;-1.786;2022-09-09T14:14:19;2.00;;;0.50;;
73072;SDS011;61260;51.090;-1.786;2022-09-09T14:16:49;1.70;;;0.70;;
73072;SDS011;61260;51.090;-1.786;2022-09-09T14:19:19;0.80;;;0.60;;
73072;SDS011;61260;51.090;-1.786;2022-09-09T14:21:49;3.10;;;0.70;;
73072;SDS011;61260;51.090;-1.786;2022-09-09T14:24:19;3.00;;;0.70;;
73072;SDS011;61260;51.090;-1.786;2022-09-09T14:26:51;1.50;;;0.80;;
73072;SDS011;61260;51.090;-1.786;2022-09-09T14:29:22;1.80;;;0.60;;
73072;SDS011;61260;51.090;-1.786;2022-09-09T14:31:53;1.80;;;0.70;;
73072;SDS011;61260;51.090;-1.786;2022-09-09T14:34:23;2.30;;;0.90;;
73072;SDS011;61260;51.090;-1.786;2022-09-09T14:36:54;2.80;;;0.90;;
73072;SDS011;61260;51.090;-1.786;2022-09-09T14:39:24;1.70;;;0.50;;
73072;SDS011;61260;51.090;-1.786;2022-09-09T14:41:54;1.90;;;0.80;;
73072;SDS011;61260;51.090;-1.786;2022-09-09T14:44:25;1.20;;;0.70;;
73072;SDS011;61260;51.090;-1.786;2022-09-09T14:46:56;2.20;;;0.80;;
73072;SDS011;61260;51.090;-1.786;2022-09-09T14:49:26;2.50;;;0.90;;
73072;SDS011;61260;51.090;-1.786;2022-09-09T14:51:56;2.10;;;0.60;;
73072;SDS011;61260;51.090;-1.786;2022-09-09T14:54:26;1.50;;;0.70;;
73072;SDS011;61260;51.090;-1.786;2022-09-09T14:56:56;1.50;;;0.70;;
73072;SDS011;61260;51.090;-1.786;2022-09-09T14:59:28;1.20;;;0.60;;
73072;SDS011;61260;51.090;-1.786;2022-09-09T15:01:58;1.60;;;0.70;;
73072;SDS011;61260;51.090;-1.786;2022-09-09T15:04:30;1.60;;;0.70;;
73072;SDS011;61260;51.090;-1.786;2022-09-09T15:07:01;2.20;;;0.80;;
73072;SDS011;61260;51.090;-1.786;2022-09-09T15:09:31;0.80;;;0.80;;
73072;SDS011;61260;51.090;-1.786;2022-09-09T15:12:02;2.30;;;1.00;;
73072;SDS011;61260;51.090;-1.786;2022-09-09T15:14:34;2.70;;;1.10;;
73072;SDS011;61260;51.090;-1.786;2022-09-09T15:17:05;1.90;;;0.60;;
73072;SDS011;61260;51.090;-1.786;2022-09-09T15:19:36;2.30;;;1.00;;
73072;SDS011;61260;51.090;-1.786;2022-09-09T15:22:06;1.90;;;1.00;;
73072;SDS011;61260;51.090;-1.786;2022-09-09T15:24:36;1.40;;;0.70;;
73072;SDS011;61260;51.090;-1.786;2022-09-09T15:27:07;2.70;;;0.90;;